createdAt,value
2022-08-23T00:00:38.379Z,6.30
2022-08-23T00:01:43.902Z,7.18
2022-08-23T00:02:45.681Z,7.15
2022-08-23T00:03:47.502Z,6.99
2022-08-23T00:05:00.550Z,7.19
2022-08-23T00:06:11.520Z,7.24
2022-08-23T00:07:15.518Z,7.53
2022-08-23T00:08:17.406Z,8.03
2022-08-23T00:09:21.811Z,7.64
2022-08-23T00:10:23.464Z,7.48
2022-08-23T00:11:29.705Z,6.92
2022-08-23T00:12:31.456Z,7.43
2022-08-23T00:13:48.250Z,7.16
2022-08-23T00:14:55.141Z,7.07
2022-08-23T00:15:56.977Z,6.60
2022-08-23T00:16:59.167Z,7.31
2022-08-23T00:18:01.013Z,6.76
2022-08-23T00:19:06.396Z,7.39
2022-08-23T00:20:12.133Z,7.37
2022-08-23T00:21:13.846Z,6.75
2022-08-23T00:22:16.420Z,6.99
2022-08-23T00:23:19.448Z,7.56
2022-08-23T00:24:22.935Z,6.95
2022-08-23T00:25:24.715Z,7.40
2022-08-23T00:26:26.506Z,7.25
2022-08-23T00:27:28.590Z,7.47
2022-08-23T00:28:31.207Z,7.31
2022-08-23T00:29:38.354Z,7.27
2022-08-23T00:30:40.075Z,6.99
2022-08-23T00:31:42.101Z,7.47
2022-08-23T00:32:46.096Z,6.70
2022-08-23T00:33:47.786Z,7.15
2022-08-23T00:34:50.524Z,7.27
2022-08-23T00:35:52.792Z,7.43
2022-08-23T00:36:54.763Z,6.77
2022-08-23T00:38:32.382Z,6.95
2022-08-23T00:39:19.614Z,6.51
2022-08-23T00:40:21.425Z,7.02
2022-08-23T00:41:23.338Z,7.56
2022-08-23T00:42:51.557Z,6.69
2022-08-23T00:44:14.313Z,7.25
2022-08-23T00:45:41.782Z,6.94
2022-08-23T00:47:10.254Z,6.68
2022-08-23T00:48:13.451Z,7.33
2022-08-23T00:49:17.748Z,6.94
2022-08-23T00:50:40.864Z,6.60
2022-08-23T00:51:59.852Z,6.75
2022-08-23T00:53:14.666Z,6.57
2022-08-23T00:54:18.470Z,6.88
2022-08-23T00:55:21.247Z,6.92
2022-08-23T00:56:27.849Z,7.08
2022-08-23T00:57:33.808Z,7.24
2022-08-23T00:58:36.370Z,6.34
2022-08-23T00:59:38.458Z,7.12
2022-08-23T01:00:40.533Z,7.11
2022-08-23T01:01:44.038Z,7.09
2022-08-23T01:02:50.858Z,6.95
2022-08-23T01:04:03.949Z,6.89
2022-08-23T01:05:07.615Z,7.31
2022-08-23T01:06:18.775Z,7.55
2022-08-23T01:07:29.458Z,7.55
2022-08-23T01:08:35.492Z,7.44
2022-08-23T01:09:42.612Z,7.15
2022-08-23T01:10:57.136Z,7.32
2022-08-23T01:12:16.374Z,7.28
2022-08-23T01:13:30.128Z,7.18
2022-08-23T01:14:40.667Z,7.99
2022-08-23T01:15:51.462Z,8.60
2022-08-23T01:17:07.037Z,7.36
2022-08-23T01:18:13.242Z,7.48
2022-08-23T01:19:31.721Z,8.14
2022-08-23T01:21:10.586Z,7.53
2022-08-23T01:22:41.350Z,7.79
2022-08-23T01:23:55.646Z,8.71
2022-08-23T01:25:07.784Z,8.38
2022-08-23T01:26:22.074Z,8.52
2022-08-23T01:27:24.983Z,7.58
2022-08-23T01:28:26.926Z,7.82
2022-08-23T01:29:28.767Z,7.78
2022-08-23T01:30:33.314Z,8.49
2022-08-23T01:31:36.814Z,8.29
2022-08-23T01:32:46.726Z,8.36
2022-08-23T01:33:58.655Z,8.70
2022-08-23T01:35:00.360Z,8.40
2022-08-23T01:36:04.203Z,8.47
2022-08-23T01:37:12.614Z,9.04
2022-08-23T01:38:16.257Z,9.00
2022-08-23T01:39:18.478Z,8.90
2022-08-23T01:40:20.418Z,9.02
2022-08-23T01:41:22.505Z,8.66
2022-08-23T01:42:24.657Z,9.58
2022-08-23T01:43:26.587Z,8.71
2022-08-23T01:44:29.289Z,8.48
2022-08-23T01:45:33.081Z,8.75
2022-08-23T01:46:36.488Z,9.24
2022-08-23T01:47:40.782Z,9.31
2022-08-23T01:48:42.514Z,9.64
2022-08-23T01:49:44.305Z,9.46
2022-08-23T01:50:46.645Z,9.20
2022-08-23T01:51:48.714Z,9.43
2022-08-23T01:52:50.679Z,9.06
2022-08-23T01:53:54.990Z,9.70
2022-08-23T01:55:01.791Z,9.01
2022-08-23T01:56:05.536Z,8.97
2022-08-23T01:57:11.089Z,9.13
2022-08-23T01:58:13.000Z,8.93
2022-08-23T01:59:14.903Z,8.71
2022-08-23T02:00:28.542Z,9.02
2022-08-23T02:01:30.287Z,8.21
2022-08-23T02:02:32.172Z,8.35
2022-08-23T02:03:35.047Z,8.87
2022-08-23T02:04:36.877Z,8.88
2022-08-23T02:05:42.751Z,9.08
2022-08-23T02:06:46.362Z,8.95
2022-08-23T02:07:53.726Z,8.70
2022-08-23T02:09:03.371Z,8.94
2022-08-23T02:10:09.430Z,8.65
2022-08-23T02:11:18.105Z,8.18
2022-08-23T02:12:22.053Z,8.82
2022-08-23T02:13:28.649Z,9.26
2022-08-23T02:14:31.778Z,8.56
2022-08-23T02:15:35.325Z,8.63
2022-08-23T02:16:59.929Z,9.27
2022-08-23T02:18:06.500Z,8.36
2022-08-23T02:19:11.981Z,9.11
2022-08-23T02:20:14.272Z,8.87
2022-08-23T02:21:16.313Z,9.96
2022-08-23T02:22:18.434Z,9.56
2022-08-23T02:23:22.292Z,9.47
2022-08-23T02:24:25.235Z,9.31
2022-08-23T02:25:27.000Z,9.73
2022-08-23T02:26:30.745Z,9.32
2022-08-23T02:27:33.180Z,8.51
2022-08-23T02:28:34.913Z,7.64
2022-08-23T02:29:39.357Z,8.51
2022-08-23T02:30:44.903Z,8.62
2022-08-23T02:31:47.473Z,8.50
2022-08-23T02:32:49.373Z,8.47
2022-08-23T02:33:53.789Z,8.11
2022-08-23T02:35:05.669Z,8.27
2022-08-23T02:36:09.180Z,8.37
2022-08-23T02:37:13.133Z,8.62
2022-08-23T02:38:15.073Z,8.29
2022-08-23T02:39:18.668Z,8.53
2022-08-23T02:40:20.447Z,8.50
2022-08-23T02:41:22.980Z,9.15
2022-08-23T02:42:24.796Z,8.99
2022-08-23T02:43:27.478Z,8.51
2022-08-23T02:44:30.163Z,8.98
2022-08-23T02:45:32.962Z,9.00
2022-08-23T02:46:35.242Z,8.07
2022-08-23T02:47:37.603Z,9.10
2022-08-23T02:48:56.375Z,8.60
2022-08-23T02:49:58.683Z,9.08
2022-08-23T02:51:08.416Z,8.72
2022-08-23T02:52:10.242Z,8.60
2022-08-23T02:53:12.129Z,8.87
2022-08-23T02:54:14.471Z,8.68
2022-08-23T02:55:16.579Z,8.65
2022-08-23T02:56:21.339Z,8.37
2022-08-23T02:57:24.375Z,8.75
2022-08-23T02:58:26.948Z,8.64
2022-08-23T02:59:28.757Z,8.53
2022-08-23T03:00:30.473Z,8.45
2022-08-23T03:01:37.605Z,8.43
2022-08-23T03:02:53.646Z,7.96
2022-08-23T03:03:57.476Z,8.40
2022-08-23T03:04:59.890Z,8.44
2022-08-23T03:06:24.425Z,8.90
2022-08-23T03:07:23.725Z,9.01
2022-08-23T03:08:25.461Z,9.33
2022-08-23T03:09:27.186Z,9.69
2022-08-23T03:10:29.004Z,10.17
2022-08-23T03:11:34.924Z,9.64
2022-08-23T03:12:36.857Z,9.28
2022-08-23T03:13:39.557Z,8.85
2022-08-23T03:14:41.767Z,8.83
2022-08-23T03:15:45.256Z,8.59
2022-08-23T03:16:47.167Z,9.26
2022-08-23T03:17:49.547Z,9.50
2022-08-23T03:18:51.851Z,8.30
2022-08-23T03:19:53.999Z,8.43
2022-08-23T03:20:55.865Z,8.44
2022-08-23T03:21:57.665Z,8.56
2022-08-23T03:22:59.551Z,8.95
2022-08-23T03:24:02.677Z,8.08
2022-08-23T03:25:09.957Z,7.94
2022-08-23T03:26:25.061Z,8.51
2022-08-23T03:27:26.960Z,8.53
2022-08-23T03:28:30.220Z,8.38
2022-08-23T03:29:33.853Z,8.85
2022-08-23T03:30:36.954Z,8.66
2022-08-23T03:31:39.065Z,8.91
2022-08-23T03:32:49.006Z,9.48
2022-08-23T03:33:52.749Z,8.93
2022-08-23T03:34:54.873Z,9.46
2022-08-23T03:36:01.297Z,9.01
2022-08-23T03:37:03.963Z,8.77
2022-08-23T03:38:06.098Z,9.35
2022-08-23T03:39:09.525Z,9.23
2022-08-23T03:40:11.865Z,8.99
2022-08-23T03:41:14.142Z,9.02
2022-08-23T03:42:16.168Z,8.70
2022-08-23T03:43:18.607Z,9.51
2022-08-23T03:44:20.389Z,8.35
2022-08-23T03:45:22.892Z,8.67
2022-08-23T03:46:24.963Z,8.78
2022-08-23T03:47:31.159Z,7.96
2022-08-23T03:48:33.373Z,9.21
2022-08-23T03:49:35.394Z,8.60
2022-08-23T03:50:37.737Z,8.27
2022-08-23T03:51:39.473Z,8.64
2022-08-23T03:52:41.492Z,9.06
2022-08-23T03:53:43.590Z,9.04
2022-08-23T03:54:45.291Z,8.45
2022-08-23T03:55:47.712Z,9.17
2022-08-23T03:57:01.129Z,8.76
2022-08-23T03:58:05.942Z,8.27
2022-08-23T03:59:11.498Z,9.12
2022-08-23T04:00:15.219Z,9.16
2022-08-23T04:01:27.899Z,8.97
2022-08-23T04:02:31.229Z,9.45
2022-08-23T04:03:33.177Z,9.06
2022-08-23T04:04:37.921Z,9.03
2022-08-23T04:05:57.833Z,8.97
2022-08-23T04:06:59.634Z,9.07
2022-08-23T04:08:09.317Z,9.27
2022-08-23T04:09:13.614Z,9.22
2022-08-23T04:10:15.689Z,9.03
2022-08-23T04:11:17.638Z,9.44
2022-08-23T04:12:26.941Z,10.15
2022-08-23T04:13:29.590Z,9.66
2022-08-23T04:14:31.496Z,9.27
2022-08-23T04:15:33.554Z,8.90
2022-08-23T04:16:40.432Z,9.64
2022-08-23T04:17:43.766Z,9.46
2022-08-23T04:18:46.061Z,9.72
2022-08-23T04:19:48.325Z,9.21
2022-08-23T04:20:51.313Z,9.41
2022-08-23T04:21:55.604Z,9.56
2022-08-23T04:22:59.036Z,10.12
2022-08-23T04:24:02.783Z,9.34
2022-08-23T04:25:33.538Z,9.97
2022-08-23T04:26:30.238Z,9.35
2022-08-23T04:27:32.305Z,9.18
2022-08-23T04:28:34.953Z,9.49
2022-08-23T04:29:39.100Z,8.65
2022-08-23T04:30:40.782Z,9.18
2022-08-23T04:31:45.296Z,8.61
2022-08-23T04:32:50.764Z,9.02
2022-08-23T04:33:54.240Z,8.98
2022-08-23T04:34:57.590Z,7.98
2022-08-23T04:36:01.109Z,8.53
2022-08-23T04:37:03.116Z,8.91
2022-08-23T04:38:18.335Z,8.55
2022-08-23T04:39:28.165Z,9.04
2022-08-23T04:40:49.225Z,8.88
2022-08-23T04:42:12.077Z,9.16
2022-08-23T04:43:16.611Z,9.31
2022-08-23T04:44:19.078Z,8.96
2022-08-23T04:45:21.389Z,8.33
2022-08-23T04:46:25.343Z,8.91
2022-08-23T04:47:27.800Z,9.62
2022-08-23T04:48:29.820Z,10.16
2022-08-23T04:49:32.590Z,9.11
2022-08-23T04:50:34.640Z,9.32
2022-08-23T04:51:53.584Z,9.42
2022-08-23T04:52:56.927Z,9.11
2022-08-23T04:53:58.879Z,9.36
2022-08-23T04:55:25.787Z,8.75
2022-08-23T04:56:38.905Z,8.53
2022-08-23T04:57:42.782Z,9.09
2022-08-23T04:58:45.277Z,8.89
2022-08-23T04:59:47.150Z,9.05
2022-08-23T05:00:52.479Z,8.57
2022-08-23T05:01:58.991Z,8.87
2022-08-23T05:03:00.807Z,8.83
2022-08-23T05:04:04.183Z,9.18
2022-08-23T05:05:08.265Z,9.23
2022-08-23T05:06:16.540Z,9.40
2022-08-23T05:07:18.299Z,10.07
2022-08-23T05:08:20.699Z,8.71
2022-08-23T05:09:25.075Z,8.15
2022-08-23T05:10:27.089Z,8.55
2022-08-23T05:11:29.277Z,9.29
2022-08-23T05:12:31.396Z,9.58
2022-08-23T05:13:35.085Z,9.93
2022-08-23T05:14:38.242Z,9.38
2022-08-23T05:15:39.999Z,9.24
2022-08-23T05:16:41.774Z,9.66
2022-08-23T05:17:45.270Z,10.43
2022-08-23T05:18:47.215Z,10.10
2022-08-23T05:19:49.213Z,10.01
2022-08-23T05:20:51.724Z,11.09
2022-08-23T05:21:56.897Z,10.52
2022-08-23T05:23:02.560Z,10.08
2022-08-23T05:24:08.830Z,9.95
2022-08-23T05:25:16.297Z,9.75
2022-08-23T05:26:18.901Z,10.40
2022-08-23T05:27:20.730Z,10.29
2022-08-23T05:28:25.966Z,10.21
2022-08-23T05:29:27.842Z,9.91
2022-08-23T05:30:29.569Z,10.60
2022-08-23T05:31:33.081Z,10.83
2022-08-23T05:32:37.177Z,10.21
2022-08-23T05:33:41.613Z,11.02
2022-08-23T05:34:43.521Z,10.69
2022-08-23T05:35:45.727Z,10.61
2022-08-23T05:36:54.972Z,10.88
2022-08-23T05:38:00.474Z,10.13
2022-08-23T05:39:02.326Z,9.97
2022-08-23T05:40:05.530Z,10.29
2022-08-23T05:41:10.784Z,10.87
2022-08-23T05:42:15.969Z,10.54
2022-08-23T05:43:18.498Z,10.22
2022-08-23T05:44:21.508Z,10.61
2022-08-23T05:45:23.644Z,9.59
2022-08-23T05:46:26.643Z,8.90
2022-08-23T05:47:44.354Z,7.99
2022-08-23T05:49:02.217Z,9.24
2022-08-23T05:50:04.291Z,9.55
2022-08-23T05:51:16.489Z,9.98
2022-08-23T05:52:18.357Z,9.41
2022-08-23T05:53:20.565Z,9.24
2022-08-23T05:54:22.821Z,9.14
2022-08-23T05:55:37.427Z,8.98
2022-08-23T05:56:50.776Z,9.27
2022-08-23T05:57:52.598Z,9.40
2022-08-23T05:58:59.968Z,9.86
2022-08-23T06:00:02.831Z,9.33
2022-08-23T06:01:06.619Z,9.29
2022-08-23T06:02:08.585Z,9.85
2022-08-23T06:03:10.376Z,9.97
2022-08-23T06:04:14.639Z,9.55
2022-08-23T06:05:19.307Z,9.11
2022-08-23T06:06:22.473Z,9.80
2022-08-23T06:07:37.397Z,8.98
2022-08-23T06:08:41.454Z,8.96
2022-08-23T06:09:43.215Z,9.17
2022-08-23T06:10:45.632Z,8.61
2022-08-23T06:12:02.061Z,8.88
2022-08-23T06:13:04.372Z,9.81
2022-08-23T06:14:08.938Z,9.01
2022-08-23T06:15:11.149Z,9.15
2022-08-23T06:16:15.969Z,8.64
2022-08-23T06:17:18.723Z,8.08
2022-08-23T06:18:20.996Z,7.30
2022-08-23T06:19:24.306Z,7.27
2022-08-23T06:21:02.437Z,6.74
2022-08-23T06:22:14.694Z,7.31
2022-08-23T06:23:17.174Z,7.99
2022-08-23T06:24:20.820Z,7.89
2022-08-23T06:25:29.821Z,7.63
2022-08-23T06:26:45.276Z,7.47
2022-08-23T06:27:47.457Z,7.63
2022-08-23T06:28:52.503Z,8.19
2022-08-23T06:29:54.219Z,7.77
2022-08-23T06:31:49.213Z,7.62
2022-08-23T06:32:58.634Z,7.65
2022-08-23T06:34:07.408Z,7.28
2022-08-23T06:35:38.836Z,7.47
2022-08-23T06:36:57.576Z,7.97
2022-08-23T06:38:35.060Z,7.33
2022-08-23T06:39:57.997Z,7.86
2022-08-23T06:41:18.148Z,6.64
2022-08-23T06:42:38.986Z,7.00
2022-08-23T06:43:43.071Z,7.48
2022-08-23T06:44:53.641Z,7.86
2022-08-23T06:46:15.957Z,8.39
2022-08-23T06:47:19.883Z,8.04
2022-08-23T06:48:24.951Z,8.30
2022-08-23T06:49:27.845Z,8.47
2022-08-23T06:50:32.063Z,8.65
2022-08-23T06:51:56.501Z,9.26
2022-08-23T06:53:40.239Z,9.39
2022-08-23T06:55:02.375Z,9.54
2022-08-23T06:56:13.226Z,10.05
2022-08-23T06:57:23.738Z,10.44
2022-08-23T06:59:00.472Z,10.48
2022-08-23T07:00:22.441Z,10.63
2022-08-23T07:01:45.498Z,10.48
2022-08-23T07:02:54.838Z,10.38
2022-08-23T07:04:18.747Z,11.46
2022-08-23T07:05:39.148Z,11.33
2022-08-23T07:06:48.002Z,11.43
2022-08-23T07:07:49.744Z,10.81
2022-08-23T07:08:52.109Z,11.48
2022-08-23T07:09:54.885Z,12.25
2022-08-23T07:10:57.243Z,13.17
2022-08-23T07:12:01.049Z,13.50
2022-08-23T07:13:03.978Z,13.10
2022-08-23T07:14:10.533Z,14.43
2022-08-23T07:15:12.945Z,12.97
2022-08-23T07:16:18.282Z,12.54
2022-08-23T07:17:20.087Z,14.51
2022-08-23T07:18:21.804Z,14.05
2022-08-23T07:19:29.217Z,14.40
2022-08-23T07:20:31.747Z,13.03
2022-08-23T07:21:33.824Z,13.21
2022-08-23T07:22:35.618Z,14.49
2022-08-23T07:23:42.016Z,13.74
2022-08-23T07:24:47.149Z,14.12
2022-08-23T07:25:49.371Z,13.35
2022-08-23T07:26:54.137Z,14.70
2022-08-23T07:27:57.498Z,14.89
2022-08-23T07:28:59.318Z,15.11
2022-08-23T07:30:02.562Z,14.62
2022-08-23T07:31:14.548Z,15.28
2022-08-23T07:32:18.623Z,13.27
2022-08-23T07:33:22.614Z,14.99
2022-08-23T07:34:41.053Z,14.55
2022-08-23T07:35:50.774Z,14.64
2022-08-23T07:36:54.140Z,14.79
2022-08-23T07:37:57.412Z,14.41
2022-08-23T07:39:06.686Z,15.68
2022-08-23T07:40:09.482Z,14.99
2022-08-23T07:41:31.090Z,16.18
2022-08-23T07:42:34.428Z,15.34
2022-08-23T07:43:36.248Z,15.41
2022-08-23T07:44:38.352Z,14.43
2022-08-23T07:45:42.467Z,14.38
2022-08-23T07:46:47.179Z,13.98
2022-08-23T07:47:50.628Z,14.84
2022-08-23T07:48:54.813Z,14.59
2022-08-23T07:49:59.997Z,13.80
2022-08-23T07:51:05.532Z,13.70
2022-08-23T07:52:08.590Z,13.86
2022-08-23T07:53:10.694Z,14.25
2022-08-23T07:54:13.039Z,15.02
2022-08-23T07:55:29.553Z,15.23
2022-08-23T07:56:45.849Z,14.47
2022-08-23T07:58:06.873Z,15.47
2022-08-23T07:59:30.396Z,14.43
2022-08-23T08:01:25.322Z,14.97
2022-08-23T08:02:27.372Z,13.54
2022-08-23T08:03:29.312Z,14.88
2022-08-23T08:04:43.004Z,14.29
2022-08-23T08:05:46.065Z,13.57
2022-08-23T08:07:10.425Z,12.81
2022-08-23T08:08:13.629Z,12.47
2022-08-23T08:09:16.628Z,14.08
2022-08-23T08:10:19.271Z,13.18
2022-08-23T08:11:24.279Z,13.94
2022-08-23T08:12:29.313Z,12.16
2022-08-23T08:13:33.146Z,12.14
2022-08-23T08:14:36.232Z,11.89
2022-08-23T08:15:42.205Z,12.27
2022-08-23T08:16:49.617Z,12.42
2022-08-23T08:17:56.152Z,11.79
2022-08-23T08:19:20.745Z,10.65
2022-08-23T08:20:44.204Z,11.59
2022-08-23T08:22:17.850Z,11.02
2022-08-23T08:23:45.670Z,11.65
2022-08-23T08:25:16.093Z,10.84
2022-08-23T08:26:21.287Z,10.81
2022-08-23T08:27:27.526Z,11.16
2022-08-23T08:28:29.715Z,10.86
2022-08-23T08:29:32.241Z,10.48
2022-08-23T08:30:34.267Z,10.69
2022-08-23T08:31:38.489Z,10.73
2022-08-23T08:32:47.342Z,10.64
2022-08-23T08:33:49.523Z,9.95
2022-08-23T08:34:51.272Z,9.91
2022-08-23T08:36:00.739Z,10.84
2022-08-23T08:37:05.842Z,9.90
2022-08-23T08:38:07.593Z,10.60
2022-08-23T08:39:16.259Z,11.03
2022-08-23T08:40:34.453Z,11.03
2022-08-23T08:42:04.224Z,11.18
2022-08-23T08:43:13.317Z,9.62
2022-08-23T08:44:24.023Z,10.44
2022-08-23T08:45:35.930Z,10.71
2022-08-23T08:46:45.488Z,9.59
2022-08-23T08:48:02.771Z,9.07
2022-08-23T08:49:31.983Z,8.90
2022-08-23T08:50:45.359Z,8.33
2022-08-23T08:52:00.942Z,9.07
2022-08-23T08:53:02.642Z,9.30
2022-08-23T08:54:29.370Z,8.76
2022-08-23T08:55:38.899Z,8.80
2022-08-23T08:56:42.520Z,8.42
2022-08-23T08:58:23.222Z,8.53
2022-08-23T08:59:33.747Z,9.52
2022-08-23T09:00:39.037Z,8.16
2022-08-23T09:01:40.961Z,8.13
2022-08-23T09:02:45.157Z,8.37
2022-08-23T09:03:48.498Z,7.93
2022-08-23T09:04:53.938Z,8.30
2022-08-23T09:06:09.744Z,8.42
2022-08-23T09:07:36.174Z,8.54
2022-08-23T09:09:13.121Z,8.53
2022-08-23T09:10:54.097Z,7.61
2022-08-23T09:12:33.457Z,7.25
2022-08-23T09:14:01.927Z,7.34
2022-08-23T09:15:23.900Z,7.02
2022-08-23T09:16:40.732Z,7.75
2022-08-23T09:17:52.566Z,8.35
2022-08-23T09:18:55.057Z,8.74
2022-08-23T09:20:03.432Z,8.07
2022-08-23T09:21:09.724Z,7.97
2022-08-23T09:22:14.908Z,7.84
2022-08-23T09:23:23.630Z,7.95
2022-08-23T09:24:28.124Z,8.50
2022-08-23T09:25:35.006Z,8.80
2022-08-23T09:26:48.577Z,8.17
2022-08-23T09:27:50.419Z,8.11
2022-08-23T09:28:56.315Z,7.78
2022-08-23T09:30:01.217Z,8.19
2022-08-23T09:31:08.339Z,8.09
2022-08-23T09:32:30.042Z,8.67
2022-08-23T09:33:46.062Z,8.87
2022-08-23T09:35:21.734Z,8.57
2022-08-23T09:36:34.980Z,9.01
2022-08-23T09:38:20.345Z,8.48
2022-08-23T09:39:38.170Z,9.35
2022-08-23T09:40:49.972Z,8.92
2022-08-23T09:41:52.440Z,8.92
2022-08-23T09:43:26.930Z,8.02
2022-08-23T09:44:36.867Z,8.60
2022-08-23T09:45:55.812Z,8.74
2022-08-23T09:47:16.679Z,8.58
2022-08-23T09:48:44.343Z,8.21
2022-08-23T09:49:51.424Z,8.77
2022-08-23T09:50:54.825Z,8.73
2022-08-23T09:52:02.127Z,9.10
2022-08-23T09:53:10.418Z,8.95
2022-08-23T09:54:22.922Z,8.64
2022-08-23T09:55:33.715Z,9.02
2022-08-23T09:56:41.117Z,8.35
2022-08-23T09:57:48.089Z,8.11
2022-08-23T09:58:54.187Z,8.13
2022-08-23T10:00:16.203Z,7.98
2022-08-23T10:01:25.851Z,8.32
2022-08-23T10:02:36.674Z,7.94
2022-08-23T10:04:17.684Z,7.92
2022-08-23T10:05:37.258Z,7.62
2022-08-23T10:06:42.020Z,7.73
2022-08-23T10:07:55.365Z,7.98
2022-08-23T10:09:04.597Z,8.45
2022-08-23T10:10:31.537Z,8.35
2022-08-23T10:11:47.348Z,8.17
2022-08-23T10:12:50.649Z,7.99
2022-08-23T10:13:52.812Z,8.66
2022-08-23T10:14:54.736Z,8.03
2022-08-23T10:16:23.845Z,7.79
2022-08-23T10:17:56.501Z,7.78
2022-08-23T10:19:23.429Z,9.08
2022-08-23T10:20:37.563Z,9.27
2022-08-23T10:22:03.976Z,9.39
2022-08-23T10:23:44.831Z,8.65
2022-08-23T10:25:02.526Z,6.28
2022-08-23T10:26:18.061Z,5.83
2022-08-23T10:28:00.711Z,6.59
2022-08-23T10:29:37.270Z,6.13
2022-08-23T10:30:58.048Z,5.59
2022-08-23T10:32:51.496Z,5.99
2022-08-23T10:34:16.980Z,6.72
2022-08-23T10:35:24.737Z,6.99
2022-08-23T10:36:40.197Z,7.36
2022-08-23T10:38:17.686Z,7.56
2022-08-23T10:39:27.880Z,7.69
2022-08-23T10:40:41.485Z,7.97
2022-08-23T10:41:59.227Z,7.98
2022-08-23T10:43:26.116Z,6.96
2022-08-23T10:44:46.797Z,6.82
2022-08-23T10:45:49.303Z,5.97
2022-08-23T10:47:17.813Z,6.35
2022-08-23T10:48:28.571Z,7.02
2022-08-23T10:49:36.408Z,6.31
2022-08-23T10:50:55.715Z,6.66
2022-08-23T10:51:59.240Z,6.98
2022-08-23T10:53:09.253Z,6.89
2022-08-23T10:54:35.844Z,7.02
2022-08-23T10:56:05.907Z,6.89
2022-08-23T10:57:18.332Z,7.92
2022-08-23T10:58:26.661Z,7.49
2022-08-23T10:59:37.313Z,7.65
2022-08-23T11:00:41.757Z,6.88
2022-08-23T11:01:52.866Z,6.55
2022-08-23T11:03:04.358Z,6.38
2022-08-23T11:04:29.681Z,6.90
2022-08-23T11:05:39.167Z,7.26
2022-08-23T11:06:59.526Z,7.48
2022-08-23T11:08:07.224Z,6.55
2022-08-23T11:09:18.202Z,4.93
2022-08-23T11:10:53.584Z,6.38
2022-08-23T11:12:11.176Z,6.70
2022-08-23T11:13:13.076Z,6.89
2022-08-23T11:14:36.566Z,7.16
2022-08-23T11:15:47.236Z,7.48
2022-08-23T11:16:59.647Z,7.46
2022-08-23T11:18:05.816Z,7.70
2022-08-23T11:19:34.652Z,7.83
2022-08-23T11:20:48.798Z,7.23
2022-08-23T11:21:52.304Z,6.37
2022-08-23T11:22:56.951Z,7.20
2022-08-23T11:23:58.681Z,5.72
2022-08-23T11:25:26.927Z,6.36
2022-08-23T11:26:36.286Z,5.70
2022-08-23T11:27:43.239Z,5.99
2022-08-23T11:28:51.234Z,5.53
2022-08-23T11:29:53.733Z,5.95
2022-08-23T11:31:29.910Z,6.54
2022-08-23T11:32:39.681Z,6.48
2022-08-23T11:34:00.124Z,5.88
2022-08-23T11:35:27.375Z,5.78
2022-08-23T11:36:31.625Z,5.68
2022-08-23T11:38:04.085Z,5.32
2022-08-23T11:39:13.372Z,5.31
2022-08-23T11:40:41.397Z,4.98
2022-08-23T11:41:56.735Z,4.73
2022-08-23T11:43:09.901Z,4.54
2022-08-23T11:44:13.249Z,4.96
2022-08-23T11:45:39.226Z,4.71
2022-08-23T11:46:53.806Z,4.51
2022-08-23T11:48:16.528Z,4.50
2022-08-23T11:49:39.849Z,3.94
2022-08-23T11:51:12.432Z,3.69
2022-08-23T11:52:51.625Z,4.21
2022-08-23T11:53:53.235Z,4.28
2022-08-23T11:55:17.579Z,4.21
2022-08-23T11:56:46.037Z,4.68
2022-08-23T11:58:32.888Z,5.22
2022-08-23T12:00:02.151Z,5.62
2022-08-23T12:01:15.056Z,4.83
2022-08-23T12:02:39.016Z,5.21
2022-08-23T12:04:00.094Z,5.36
2022-08-23T12:05:32.304Z,5.23
2022-08-23T12:06:56.033Z,5.41
2022-08-23T12:08:03.931Z,5.65
2022-08-23T12:09:12.253Z,5.13
2022-08-23T12:10:22.113Z,5.11
2022-08-23T12:11:45.560Z,4.70
2022-08-23T12:13:25.343Z,4.64
2022-08-23T12:14:42.309Z,4.51
2022-08-23T12:16:17.060Z,4.89
2022-08-23T12:17:25.593Z,4.83
2022-08-23T12:18:27.863Z,5.06
2022-08-23T12:19:40.513Z,4.85
2022-08-23T12:20:48.452Z,4.54
2022-08-23T12:21:54.697Z,5.14
2022-08-23T12:23:08.063Z,5.43
2022-08-23T12:24:22.778Z,3.95
2022-08-23T12:25:24.592Z,4.56
2022-08-23T12:26:50.259Z,4.56
2022-08-23T12:28:08.642Z,5.13
2022-08-23T12:29:36.865Z,5.06
2022-08-23T12:30:57.950Z,5.09
2022-08-23T12:32:11.764Z,4.95
2022-08-23T12:33:38.935Z,5.06
2022-08-23T12:35:16.606Z,5.41
2022-08-23T12:36:29.945Z,4.64
2022-08-23T12:37:40.699Z,4.60
2022-08-23T12:39:00.740Z,4.95
2022-08-23T12:40:12.242Z,4.81
2022-08-23T12:41:51.613Z,4.63
2022-08-23T12:43:05.086Z,4.53
2022-08-23T12:44:09.561Z,4.93
2022-08-23T12:45:20.212Z,4.82
2022-08-23T12:46:35.355Z,4.03
2022-08-23T12:47:42.302Z,4.44
2022-08-23T12:48:47.385Z,4.44
2022-08-23T12:50:15.054Z,4.01
2022-08-23T12:51:17.212Z,4.76
2022-08-23T12:52:25.889Z,4.41
2022-08-23T12:53:44.000Z,4.30
2022-08-23T12:54:50.926Z,4.11
2022-08-23T12:56:08.038Z,4.06
2022-08-23T12:57:17.164Z,3.65
2022-08-23T12:58:33.371Z,3.77
2022-08-23T12:59:44.792Z,4.17
2022-08-23T13:00:59.984Z,4.04
2022-08-23T13:02:06.505Z,3.84
2022-08-23T13:03:24.159Z,3.85
2022-08-23T13:04:25.893Z,3.46
2022-08-23T13:05:52.224Z,3.76
2022-08-23T13:07:04.438Z,3.72
2022-08-23T13:08:15.879Z,3.82
2022-08-23T13:09:24.477Z,3.79
2022-08-23T13:10:26.587Z,3.38
2022-08-23T13:11:33.913Z,3.83
2022-08-23T13:12:37.515Z,3.37
2022-08-23T13:13:42.196Z,3.43
2022-08-23T13:14:48.360Z,3.51
2022-08-23T13:15:58.078Z,3.12
2022-08-23T13:17:18.603Z,2.97
2022-08-23T13:18:40.564Z,3.12
2022-08-23T13:19:42.385Z,3.82
2022-08-23T13:20:44.166Z,3.63
2022-08-23T13:21:46.489Z,3.27
2022-08-23T13:22:58.951Z,3.39
2022-08-23T13:24:22.210Z,2.92
2022-08-23T13:25:39.089Z,3.32
2022-08-23T13:26:43.920Z,3.65
2022-08-23T13:27:45.825Z,3.00
2022-08-23T13:29:11.992Z,3.14
2022-08-23T13:30:14.026Z,3.01
2022-08-23T13:31:15.828Z,2.76
2022-08-23T13:32:33.903Z,3.12
2022-08-23T13:33:36.137Z,3.06
2022-08-23T13:34:39.956Z,3.09
2022-08-23T13:35:51.594Z,3.45
2022-08-23T13:36:53.280Z,3.03
2022-08-23T13:38:10.806Z,3.11
2022-08-23T13:39:12.637Z,3.04
2022-08-23T13:40:28.429Z,3.50
2022-08-23T13:41:39.142Z,3.50
2022-08-23T13:42:52.769Z,3.34
2022-08-23T13:43:55.294Z,3.36
2022-08-23T13:44:57.098Z,3.20
2022-08-23T13:46:14.678Z,3.68
2022-08-23T13:47:37.841Z,3.59
2022-08-23T13:48:49.271Z,3.70
2022-08-23T13:49:53.678Z,3.56
2022-08-23T13:51:30.094Z,3.81
2022-08-23T13:52:51.064Z,3.62
2022-08-23T13:53:56.512Z,3.43
2022-08-23T13:54:58.257Z,4.12
2022-08-23T13:56:00.034Z,4.10
2022-08-23T13:57:11.069Z,3.85
2022-08-23T13:58:24.253Z,3.97
2022-08-23T13:59:38.562Z,4.02
2022-08-23T14:00:45.726Z,3.73
2022-08-23T14:02:01.648Z,4.11
2022-08-23T14:03:05.136Z,3.91
2022-08-23T14:04:07.842Z,3.67
2022-08-23T14:05:10.129Z,3.72
2022-08-23T14:06:12.338Z,3.31
2022-08-23T14:07:15.233Z,3.38
2022-08-23T14:08:17.579Z,3.34
2022-08-23T14:09:19.640Z,3.43
2022-08-23T14:10:23.354Z,3.13
2022-08-23T14:11:25.080Z,3.49
2022-08-23T14:12:30.984Z,3.72
2022-08-23T14:13:34.417Z,3.91
2022-08-23T14:14:36.513Z,3.73
2022-08-23T14:15:58.544Z,3.51
2022-08-23T14:17:04.760Z,3.38
2022-08-23T14:18:06.747Z,3.36
2022-08-23T14:19:16.623Z,3.82
2022-08-23T14:20:43.547Z,3.41
2022-08-23T14:21:46.792Z,3.39
2022-08-23T14:22:48.643Z,3.26
2022-08-23T14:23:50.334Z,3.20
2022-08-23T14:24:52.005Z,3.47
2022-08-23T14:25:56.625Z,3.45
2022-08-23T14:26:58.543Z,3.31
2022-08-23T14:28:00.208Z,3.33
2022-08-23T14:29:01.909Z,3.16
2022-08-23T14:30:05.618Z,2.89
2022-08-23T14:31:07.365Z,3.41
2022-08-23T14:32:09.062Z,2.95
2022-08-23T14:33:10.714Z,3.12
2022-08-23T14:34:12.376Z,3.08
2022-08-23T14:35:14.180Z,3.01
2022-08-23T14:36:16.370Z,3.36
2022-08-23T14:38:40.878Z,3.50
2022-08-23T14:39:43.165Z,3.05
2022-08-23T14:40:53.313Z,2.82
2022-08-23T14:41:55.259Z,3.06
2022-08-23T14:42:56.998Z,3.39
2022-08-23T14:43:58.881Z,3.27
2022-08-23T14:45:00.665Z,3.15
2022-08-23T14:46:03.048Z,3.04
2022-08-23T14:47:06.013Z,3.49
2022-08-23T14:48:07.720Z,3.15
2022-08-23T14:49:09.987Z,3.16
2022-08-23T14:50:13.826Z,2.81
2022-08-23T14:51:36.093Z,3.12
2022-08-23T14:52:47.573Z,3.28
2022-08-23T14:53:49.626Z,3.48
2022-08-23T14:54:51.335Z,3.29
2022-08-23T14:56:18.828Z,2.93
2022-08-23T14:57:17.671Z,2.87
2022-08-23T14:58:21.048Z,3.29
2022-08-23T14:59:22.765Z,3.55
2022-08-23T15:00:24.520Z,3.54
2022-08-23T15:01:26.656Z,3.30
2022-08-23T15:02:30.054Z,3.27
2022-08-23T15:03:31.898Z,3.46
2022-08-23T15:04:34.553Z,3.24
2022-08-23T15:05:36.967Z,3.17
2022-08-23T15:06:54.927Z,2.94
2022-08-23T15:08:03.070Z,3.07
2022-08-23T15:09:04.775Z,3.43
2022-08-23T15:10:09.803Z,3.17
2022-08-23T15:13:59.681Z,3.69
2022-08-23T15:15:05.063Z,3.62
2022-08-23T15:16:09.992Z,3.81
2022-08-23T15:17:12.168Z,3.59
2022-08-23T15:18:15.620Z,3.77
2022-08-23T15:19:17.666Z,3.11
2022-08-23T15:20:27.251Z,3.46
2022-08-23T15:21:28.928Z,3.27
2022-08-23T15:22:30.676Z,3.57